• Join FlightAware (Why Join?)
  • Login
  • US Flag 
02:15PM EDT


 

Airport Tracker/Info


-or-


 

Live Flight TrackerFlight Track Log ✈ N569LM ✈ 08-Jun-2014 ✈ KSAT - MMAN / NTR

Flight Track Log - Related Links

Times and Time Zones

All times are in EDT time to prevent confusion due to time zone crossing. See the N569LM flight status page for this flight to view local times or setup timezone preferences in your user account.

Time Position Orientation Groundspeed Altitude Reporting Facility
EDT Latitude Longitude Course Direction KTS MPH feet Rate Location/Type
05:51PM 29.5233 -98.4711 217° Southwest 155 178 1,300  Level Houston Center
05:51PM 29.5144 -98.4789 217° Southwest 171 197 1,700 1,800 Climbing Houston Center
05:52PM 29.4594 -98.5214 214° Southwest 222 255 3,700 2,220 Climbing Houston Center
05:53PM 29.3961 -98.5472 200° South 239 275 6,300 2,400 Climbing Houston Center
05:54PM 29.3261 -98.5733 198° South 244 281 8,700 2,040 Climbing Houston Center
05:55PM 29.2575 -98.6014 200° South 255 293 10,600 1,980 Climbing Houston Center
05:56PM 29.1869 -98.6439 208° Southwest 264 304 12,800 1,920 Climbing Houston Center
05:57PM 29.1147 -98.6817 205° Southwest 281 323 14,600 1,740 Climbing Houston Center
05:58PM 29.0356 -98.7253 206° Southwest 290 334 16,400 1,740 Climbing Houston Center
05:59PM 28.9597 -98.7653 205° Southwest 299 344 18,300 1,800 Climbing Houston Center
06:01PM 28.8758 -98.8078 204° Southwest 302 348 20,200 1,740 Climbing Houston Center
06:02PM 28.7994 -98.8492 205° Southwest 303 349 22,000 1,320 Climbing Houston Center
06:03PM 28.7211 -98.8897 204° Southwest 309 356 23,000 480 Climbing Houston Center
06:04PM 28.6372 -98.9364 206° Southwest 351 404 23,000 660 Level Houston Center
06:05PM 28.5464 -98.9847 205° Southwest 359 413 24,400 1,380 Climbing Houston Center
06:06PM 28.4617 -99.0286 204° Southwest 338 389 25,900 720 Climbing Houston Center
06:07PM 28.3572 -99.0847 205° Southwest 351 404 26,000  Climbing Houston Center
06:08PM 28.2631 -99.1336 205° Southwest 370 426 26,000  Level Houston Center
06:09PM 28.1667 -99.1844 205° Southwest 378 435 26,000  Level Houston Center
06:10PM 28.0697 -99.2353 205° Southwest 384 442 26,000  Level Houston Center
06:11PM 27.9728 -99.2864 205° Southwest 384 442 26,000  Level Houston Center
06:12PM 27.8561 -99.3486 205° Southwest 386 444 26,000  Level Houston Center
06:13PM 27.7575 -99.3994 205° Southwest 390 449 26,000  Level Houston Center
06:14PM 27.6597 -99.4508 205° Southwest 390 449 26,000  Level Houston Center
06:15PM 27.5617 -99.5019 205° Southwest 390 449 26,000  Level Houston Center
06:17PM 27.4388 -99.5501 214° Southwest  Level FlightAware Approximate
06:24PM 26.8572 -99.7436 196° South  Level FlightAware Approximate
06:25PM 26.7736 -99.7699 197° South  Level FlightAware Approximate
06:26PM 26.6904 -99.7977 197° South  Level FlightAware Approximate
06:27PM 26.6071 -99.8255 197° South  Level FlightAware Approximate
06:28PM 26.5239 -99.8532 197° South  Level FlightAware Approximate
06:29PM 26.4407 -99.8809 197° South  Level FlightAware Approximate
06:30PM 26.3573 -99.9078 195° South  Level FlightAware Approximate
06:31PM 26.2734 -99.9330 195° South  Level FlightAware Approximate
06:32PM 26.1898 -99.9590 197° South  Level FlightAware Approximate
06:33PM 26.1066 -99.9867 197° South  Level FlightAware Approximate
06:34PM 26.0234 -100.0144 197° South  Level FlightAware Approximate
06:35PM 25.9396 -100.0398 195° South  Level FlightAware Approximate
06:36PM 25.8558 -100.0649 195° South  Level FlightAware Approximate
06:37PM 25.7743 -100.0975 197° South  Level FlightAware Approximate
06:38PM 25.8171 -100.1674 299° West  Level FlightAware Approximate
06:39PM 25.8641 -100.2475 318° Northwest  Level FlightAware Approximate
06:40PM 25.8667 -100.2500 318° Northwest  Level FlightAware Approximate
06:41PM 25.8656 -100.2372 318° Northwest  Level Estimated
06:42PM 25.8656 -100.2372 318° Northwest  Level Estimated
06:43PM 25.8656 -100.2372 318° Northwest  Level Estimated
06:44PM 25.8656 -100.2372 318° Northwest  Level Estimated
06:45PM 25.8656 -100.2372 318° Northwest  Level Estimated
06:46PM 25.8656 -100.2372 318° Northwest  Level Estimated
06:47PM 25.8656 -100.2372 318° Northwest  Level Estimated
06:48PM 25.8656 -100.2372 318° Northwest  Level Estimated
06:49PM 25.8656 -100.2372 318° Northwest  Level Estimated
06:50PM 25.8656 -100.2372 318° Northwest  Level Estimated
06:51PM 25.8656 -100.2372 318° Northwest  Level Estimated
06:52PM 25.8656 -100.2372 318° Northwest  Level Estimated
06:53PM 25.8656 -100.2372 318° Northwest  Level Estimated
06:54PM 25.8656 -100.2372 318° Northwest  Level Estimated
06:55PM 25.8656 -100.2372 318° Northwest  Level Estimated